createdAt,value
2023-03-28T00:02:14.440Z,101795.59
2023-03-28T00:04:41.384Z,101808.84
2023-03-28T00:07:08.444Z,101817.66
2023-03-28T00:09:35.494Z,101829.06
2023-03-28T00:12:02.578Z,101815.28
2023-03-28T00:14:30.364Z,101817.00
2023-03-28T00:16:57.334Z,101811.66
2023-03-28T00:19:24.273Z,101828.19
2023-03-28T00:21:51.385Z,101816.09
2023-03-28T00:24:21.497Z,101830.03
2023-03-28T00:26:54.663Z,101827.50
2023-03-28T00:29:22.968Z,101828.44
2023-03-28T00:31:51.116Z,101819.59
2023-03-28T00:34:18.412Z,101824.97
2023-03-28T00:36:45.452Z,101818.88
2023-03-28T00:39:13.429Z,101823.28
2023-03-28T00:41:44.188Z,101840.75
2023-03-28T00:44:41.842Z,101841.72
2023-03-28T00:47:40.996Z,101846.47
2023-03-28T00:50:22.585Z,101846.53
2023-03-28T00:53:15.017Z,101857.09
2023-03-28T00:55:55.988Z,101854.44
2023-03-28T00:58:29.470Z,101852.88
2023-03-28T01:00:57.660Z,101844.09
2023-03-28T01:03:29.677Z,101847.56
2023-03-28T01:05:58.275Z,101851.13
2023-03-28T01:08:38.648Z,101861.63
2023-03-28T01:11:06.872Z,101856.50
2023-03-28T01:13:39.267Z,101847.69
2023-03-28T01:16:08.643Z,101866.81
2023-03-28T01:18:41.229Z,101845.91
2023-03-28T01:21:31.311Z,101873.09
2023-03-28T01:24:56.405Z,101873.91
2023-03-28T01:28:02.162Z,101858.19
2023-03-28T01:31:11.045Z,101864.44
2023-03-28T01:34:11.579Z,101875.59
2023-03-28T01:36:57.097Z,101880.78
2023-03-28T01:40:06.310Z,101883.56
2023-03-28T01:42:52.446Z,101877.28
2023-03-28T01:45:36.794Z,101883.44
2023-03-28T01:48:29.318Z,101873.00
2023-03-28T01:50:57.368Z,101883.44
2023-03-28T01:53:43.197Z,101879.88
2023-03-28T01:56:28.139Z,101844.00
2023-03-28T01:59:13.082Z,101889.72
2023-03-28T02:02:35.143Z,101871.22
2023-03-28T02:05:15.565Z,101887.97
2023-03-28T02:07:45.366Z,101893.97
2023-03-28T02:10:16.490Z,101887.75
2023-03-28T02:13:22.128Z,101873.84
2023-03-28T02:15:57.918Z,101881.56
2023-03-28T02:18:54.700Z,101872.00
2023-03-28T02:21:52.195Z,101889.56
2023-03-28T02:24:41.401Z,101898.53
2023-03-28T02:27:11.847Z,101868.81
2023-03-28T02:30:01.934Z,101887.06
2023-03-28T02:32:50.649Z,101880.13
2023-03-28T02:35:27.951Z,101880.13
2023-03-28T02:38:25.414Z,101883.72
2023-03-28T02:41:04.935Z,101881.06
2023-03-28T02:44:08.282Z,101869.63
2023-03-28T02:47:08.439Z,101889.66
2023-03-28T02:50:08.964Z,101889.72
2023-03-28T02:53:07.177Z,101873.28
2023-03-28T02:55:49.139Z,101893.22
2023-03-28T02:58:58.947Z,101888.03
2023-03-28T03:01:29.031Z,101875.78
2023-03-28T03:03:58.135Z,101879.44
2023-03-28T03:06:25.608Z,101881.84
2023-03-28T03:08:52.509Z,101889.03
2023-03-28T03:11:19.848Z,101872.53
2023-03-28T03:13:47.862Z,101883.13
2023-03-28T03:16:14.821Z,101893.59
2023-03-28T03:18:42.259Z,101876.13
2023-03-28T03:21:09.224Z,101863.00
2023-03-28T03:23:37.080Z,101894.59
2023-03-28T03:26:04.204Z,101873.75
2023-03-28T03:28:41.120Z,101869.31
2023-03-28T03:31:08.632Z,101888.72
2023-03-28T03:33:54.702Z,101874.75
2023-03-28T03:36:27.132Z,101883.53
2023-03-28T03:38:54.228Z,101866.09
2023-03-28T03:41:22.973Z,101875.09
2023-03-28T03:43:49.902Z,101895.09
2023-03-28T03:46:16.980Z,101889.19
2023-03-28T03:48:49.409Z,101884.69
2023-03-28T03:51:17.697Z,101887.50
2023-03-28T03:53:46.550Z,101899.72
2023-03-28T03:56:16.115Z,101894.50
2023-03-28T03:58:53.874Z,101917.19
2023-03-28T04:01:25.781Z,101883.03
2023-03-28T04:03:53.806Z,101909.22
2023-03-28T04:06:25.861Z,101893.47
2023-03-28T04:08:52.992Z,101925.16
2023-03-28T04:11:36.102Z,101915.59
2023-03-28T04:14:03.025Z,101915.78
2023-03-28T04:16:40.577Z,101908.88
2023-03-28T04:19:10.665Z,101922.34
2023-03-28T04:21:41.617Z,101914.59
2023-03-28T04:24:09.297Z,101929.63
2023-03-28T04:26:45.649Z,101934.06
2023-03-28T04:29:13.221Z,101918.50
2023-03-28T04:31:55.974Z,101912.47
2023-03-28T04:35:01.003Z,101933.41
2023-03-28T04:37:27.964Z,101928.31
2023-03-28T04:39:57.254Z,101939.91
2023-03-28T04:42:44.435Z,101957.59
2023-03-28T04:45:43.313Z,101956.66
2023-03-28T04:48:14.652Z,101962.84
2023-03-28T04:50:42.014Z,101939.31
2023-03-28T04:53:09.073Z,101940.16
2023-03-28T04:55:50.328Z,101935.03
2023-03-28T04:58:24.193Z,101935.03
2023-03-28T05:00:51.564Z,101963.09
2023-03-28T05:03:37.723Z,101969.16
2023-03-28T05:06:06.538Z,101959.53
2023-03-28T05:08:33.565Z,101955.94
2023-03-28T05:11:01.246Z,101959.53
2023-03-28T05:13:28.533Z,101972.69
2023-03-28T05:16:05.513Z,101983.19
2023-03-28T05:18:46.061Z,101981.47
2023-03-28T05:21:13.257Z,101983.31
2023-03-28T05:23:40.310Z,101969.34
2023-03-28T05:26:16.540Z,101981.47
2023-03-28T05:28:43.609Z,101972.81
2023-03-28T05:31:11.259Z,101981.47
2023-03-28T05:33:38.284Z,101984.94
2023-03-28T05:36:05.760Z,101976.25
2023-03-28T05:38:33.703Z,101998.94
2023-03-28T05:41:06.907Z,101999.97
2023-03-28T05:43:34.229Z,102005.13
2023-03-28T05:46:01.483Z,101990.34
2023-03-28T05:48:39.856Z,101990.06
2023-03-28T05:51:07.002Z,101992.72
2023-03-28T05:53:34.880Z,101990.97
2023-03-28T05:56:01.926Z,102013.75
2023-03-28T05:58:29.553Z,102016.13
2023-03-28T06:00:56.528Z,102009.03
2023-03-28T06:03:25.838Z,102006.22
2023-03-28T06:05:52.879Z,102009.72
2023-03-28T06:08:27.299Z,102035.28
2023-03-28T06:10:54.600Z,102033.56
2023-03-28T06:13:41.770Z,102040.59
2023-03-28T06:16:10.828Z,102032.00
2023-03-28T06:18:37.997Z,102037.03
2023-03-28T06:21:05.472Z,102037.06
2023-03-28T06:23:32.582Z,102001.16
2023-03-28T06:25:59.673Z,102045.75
2023-03-28T06:28:32.948Z,102028.97
2023-03-28T06:31:32.778Z,102030.72
2023-03-28T06:33:59.877Z,102042.91
2023-03-28T06:36:26.913Z,102042.84
2023-03-28T06:38:54.855Z,102048.13
2023-03-28T06:41:24.143Z,102039.19
2023-03-28T06:43:51.216Z,102046.00
2023-03-28T06:46:36.604Z,102031.81
2023-03-28T06:49:04.787Z,102046.38
2023-03-28T06:51:57.596Z,102055.25
2023-03-28T06:54:25.208Z,102052.66
2023-03-28T06:56:52.230Z,102062.16
2023-03-28T06:59:19.206Z,102061.22
2023-03-28T07:01:51.834Z,102055.25
2023-03-28T07:04:24.980Z,102065.78
2023-03-28T07:06:51.952Z,102049.88
2023-03-28T07:09:18.867Z,102063.00
2023-03-28T07:11:58.502Z,102047.16
2023-03-28T07:14:25.527Z,102051.38
2023-03-28T07:16:52.566Z,102066.22
2023-03-28T07:19:19.587Z,102069.44
2023-03-28T07:21:47.971Z,102060.38
2023-03-28T07:24:15.155Z,102060.78
2023-03-28T07:26:54.771Z,102072.91
2023-03-28T07:29:26.079Z,102070.84
2023-03-28T07:31:53.028Z,102067.94
2023-03-28T07:34:20.290Z,102057.22
2023-03-28T07:36:47.332Z,102073.41
2023-03-28T07:39:21.256Z,102076.84
2023-03-28T07:41:50.902Z,102074.13
2023-03-28T07:44:18.032Z,102081.81
2023-03-28T07:46:46.494Z,102067.44
2023-03-28T07:49:15.412Z,102083.97
2023-03-28T07:51:42.591Z,102086.22
2023-03-28T07:54:17.586Z,102098.75
2023-03-28T07:56:46.706Z,102088.44
2023-03-28T07:59:24.229Z,102083.50
2023-03-28T08:01:53.265Z,102091.31
2023-03-28T08:04:20.647Z,102091.94
2023-03-28T08:07:04.257Z,102100.84
2023-03-28T08:09:31.256Z,102070.72
2023-03-28T08:12:12.047Z,102070.56
2023-03-28T08:14:38.952Z,102090.41
2023-03-28T08:17:06.351Z,102099.28
2023-03-28T08:19:33.430Z,102096.59
2023-03-28T08:22:26.329Z,102095.28
2023-03-28T08:25:11.996Z,102082.25
2023-03-28T08:27:39.051Z,102091.13
2023-03-28T08:30:10.880Z,102099.59
2023-03-28T08:32:49.113Z,102092.34
2023-03-28T08:35:16.432Z,102103.56
2023-03-28T08:37:44.017Z,102100.06
2023-03-28T08:40:18.177Z,102114.63
2023-03-28T08:43:09.696Z,102099.88
2023-03-28T08:45:51.298Z,102108.69
2023-03-28T08:48:37.832Z,102106.09
2023-03-28T08:51:28.951Z,102103.44
2023-03-28T08:54:10.351Z,102095.44
2023-03-28T08:57:03.473Z,102082.25
2023-03-28T09:00:19.333Z,102099.94
2023-03-28T09:02:46.915Z,102101.13
2023-03-28T09:05:23.488Z,102100.81
2023-03-28T09:08:53.432Z,102101.72
2023-03-28T09:11:45.171Z,102098.53
2023-03-28T09:15:00.539Z,102090.81
2023-03-28T09:17:37.162Z,102090.78
2023-03-28T09:20:23.256Z,102052.66
2023-03-28T09:23:50.688Z,102074.72
2023-03-28T09:26:56.582Z,102080.53
2023-03-28T09:29:27.845Z,102054.75
2023-03-28T09:32:07.763Z,102083.88
2023-03-28T09:34:47.322Z,102085.84
2023-03-28T09:37:41.527Z,102054.16
2023-03-28T09:40:20.027Z,102086.31
2023-03-28T09:43:35.195Z,102083.16
2023-03-28T09:46:39.906Z,102079.50
2023-03-28T09:49:30.072Z,102066.06
2023-03-28T09:52:16.340Z,102062.75
2023-03-28T09:54:43.621Z,102090.16
2023-03-28T09:57:10.968Z,102077.19
2023-03-28T09:59:45.064Z,102083.38
2023-03-28T10:02:32.177Z,102091.09
2023-03-28T10:05:06.129Z,102081.75
2023-03-28T10:08:03.373Z,102090.31
2023-03-28T10:10:44.141Z,102071.34
2023-03-28T10:13:18.575Z,102091.78
2023-03-28T10:15:50.206Z,102090.84
2023-03-28T10:18:37.874Z,102092.28
2023-03-28T10:21:22.152Z,102078.97
2023-03-28T10:24:05.019Z,102073.19
2023-03-28T10:26:32.764Z,102064.06
2023-03-28T10:29:07.567Z,102076.50
2023-03-28T10:31:39.501Z,102072.72
2023-03-28T10:34:33.598Z,102064.97
2023-03-28T10:37:27.985Z,102054.25
2023-03-28T10:40:20.333Z,102057.25
2023-03-28T10:43:16.889Z,102054.50
2023-03-28T10:46:17.529Z,102055.75
2023-03-28T10:49:13.621Z,102051.91
2023-03-28T10:51:43.575Z,102045.25
2023-03-28T10:54:27.270Z,102068.00
2023-03-28T10:57:15.900Z,102063.91
2023-03-28T11:00:07.033Z,102060.19
2023-03-28T11:03:15.763Z,102051.97
2023-03-28T11:06:08.032Z,102061.94
2023-03-28T11:08:45.991Z,102060.13
2023-03-28T11:11:30.387Z,102057.66
2023-03-28T11:14:27.186Z,102061.13
2023-03-28T11:17:16.408Z,102047.00
2023-03-28T11:20:17.701Z,102041.91
2023-03-28T11:23:45.640Z,102046.78
2023-03-28T11:26:41.739Z,102041.84
2023-03-28T11:29:49.653Z,102049.13
2023-03-28T11:32:25.017Z,102045.53
2023-03-28T11:35:28.633Z,102050.88
2023-03-28T11:38:22.316Z,102058.34
2023-03-28T11:41:07.732Z,102062.19
2023-03-28T11:44:25.135Z,102056.19
2023-03-28T11:47:18.657Z,102051.03
2023-03-28T11:50:37.972Z,102034.72
2023-03-28T11:53:33.479Z,102049.38
2023-03-28T11:56:56.989Z,102043.16
2023-03-28T11:59:46.456Z,102035.44
2023-03-28T12:02:37.816Z,102027.69
2023-03-28T12:05:32.794Z,102015.22
2023-03-28T12:08:16.362Z,102019.44
2023-03-28T12:10:51.378Z,102001.28
2023-03-28T12:13:58.319Z,102013.13
2023-03-28T12:16:41.860Z,102008.47
2023-03-28T12:19:17.288Z,102002.31
2023-03-28T12:21:59.499Z,102002.94
2023-03-28T12:24:43.171Z,101995.81
2023-03-28T12:28:11.293Z,101990.84
2023-03-28T12:31:11.383Z,101989.81
2023-03-28T12:34:14.636Z,101970.38
2023-03-28T12:37:18.606Z,101969.84
2023-03-28T12:39:59.484Z,101979.97
2023-03-28T12:42:30.065Z,101982.78
2023-03-28T12:45:04.298Z,101979.28
2023-03-28T12:47:43.676Z,101977.13
2023-03-28T12:50:29.231Z,101973.53
2023-03-28T12:52:58.026Z,101962.81
2023-03-28T12:55:48.627Z,101964.97
2023-03-28T12:58:29.232Z,101955.75
2023-03-28T13:01:07.963Z,101969.47
2023-03-28T13:04:17.694Z,101964.25
2023-03-28T13:07:13.005Z,101963.09
2023-03-28T13:10:00.933Z,101960.31
2023-03-28T13:13:10.742Z,101936.56
2023-03-28T13:16:12.936Z,101944.78
2023-03-28T13:19:07.951Z,101942.09
2023-03-28T13:21:51.158Z,101934.31
2023-03-28T13:24:34.436Z,101922.59
2023-03-28T13:27:32.756Z,101914.94
2023-03-28T13:30:15.701Z,101914.88
2023-03-28T13:32:56.373Z,101898.94
2023-03-28T13:35:46.269Z,101926.09
2023-03-28T13:38:29.533Z,101914.69
2023-03-28T13:41:00.188Z,101908.72
2023-03-28T13:43:48.367Z,101909.50
2023-03-28T13:46:19.942Z,101906.91
2023-03-28T13:49:07.881Z,101905.47
2023-03-28T13:51:52.059Z,101895.72
2023-03-28T13:54:19.660Z,101888.34
2023-03-28T13:56:48.881Z,101892.34
2023-03-28T13:59:33.010Z,101877.50
2023-03-28T14:02:02.450Z,101881.13
2023-03-28T14:04:34.615Z,101880.34
2023-03-28T14:07:02.419Z,101866.38
2023-03-28T14:09:32.473Z,101855.91
2023-03-28T14:12:14.719Z,101864.94
2023-03-28T14:15:09.876Z,101862.84
2023-03-28T14:17:39.522Z,101860.56
2023-03-28T14:20:08.047Z,101856.81
2023-03-28T14:22:52.786Z,101833.75
2023-03-28T14:25:27.564Z,101839.66
2023-03-28T14:27:56.694Z,101829.88
2023-03-28T14:30:32.078Z,101840.53
2023-03-28T14:33:07.754Z,101833.00
2023-03-28T14:35:36.603Z,101820.81
2023-03-28T14:38:17.430Z,101820.22
2023-03-28T14:40:45.732Z,101808.75
2023-03-28T14:43:20.544Z,101814.53
2023-03-28T14:45:52.724Z,101818.84
2023-03-28T14:48:24.340Z,101803.56
2023-03-28T14:50:53.620Z,101794.97
2023-03-28T14:53:29.619Z,101790.78
2023-03-28T14:56:09.259Z,101800.94
2023-03-28T14:58:41.744Z,101798.53
2023-03-28T15:01:15.351Z,101774.69
2023-03-28T15:03:46.791Z,101795.22
2023-03-28T15:06:19.915Z,101779.09
2023-03-28T15:08:47.132Z,101788.78
2023-03-28T15:11:34.534Z,101770.22
2023-03-28T15:14:28.269Z,101784.47
2023-03-28T15:16:56.001Z,101772.69
2023-03-28T15:19:28.817Z,101782.59
2023-03-28T15:22:05.164Z,101779.59
2023-03-28T15:24:32.962Z,101770.06
2023-03-28T15:27:01.899Z,101764.81
2023-03-28T15:29:35.781Z,101760.47
2023-03-28T15:32:15.476Z,101753.25
2023-03-28T15:34:55.732Z,101745.00
2023-03-28T15:37:26.240Z,101751.06
2023-03-28T15:39:53.650Z,101734.25
2023-03-28T15:42:20.825Z,101739.09
2023-03-28T15:44:59.629Z,101737.84
2023-03-28T15:47:30.521Z,101720.69
2023-03-28T15:50:08.114Z,101723.72
2023-03-28T15:52:35.774Z,101723.75
2023-03-28T15:55:05.976Z,101737.91
2023-03-28T15:57:32.994Z,101734.06
2023-03-28T16:00:00.903Z,101723.81
2023-03-28T16:02:28.098Z,101741.00
2023-03-28T16:05:09.822Z,101734.25
2023-03-28T16:07:48.426Z,101719.75
2023-03-28T16:10:24.604Z,101713.31
2023-03-28T16:13:14.533Z,101726.38
2023-03-28T16:16:00.534Z,101716.41
2023-03-28T16:18:44.706Z,101699.25
2023-03-28T16:21:12.212Z,101711.53
2023-03-28T16:23:39.170Z,101698.69
2023-03-28T16:26:06.997Z,101699.16
2023-03-28T16:28:34.932Z,101691.09
2023-03-28T16:31:02.243Z,101702.19
2023-03-28T16:33:29.428Z,101701.00
2023-03-28T16:35:56.843Z,101678.47
2023-03-28T16:38:24.280Z,101694.53
2023-03-28T16:40:51.284Z,101690.34
2023-03-28T16:43:18.457Z,101678.41
2023-03-28T16:45:48.404Z,101685.75
2023-03-28T16:48:15.755Z,101661.78
2023-03-28T16:50:53.545Z,101669.56
2023-03-28T16:53:21.557Z,101657.25
2023-03-28T16:55:48.849Z,101658.72
2023-03-28T16:58:15.754Z,101660.81
2023-03-28T17:00:45.220Z,101649.28
2023-03-28T17:03:13.380Z,101628.72
2023-03-28T17:05:40.525Z,101637.22
2023-03-28T17:08:07.953Z,101634.97
2023-03-28T17:10:40.155Z,101631.59
2023-03-28T17:13:32.324Z,101642.59
2023-03-28T17:15:59.409Z,101633.16
2023-03-28T17:18:26.805Z,101644.09
2023-03-28T17:21:09.253Z,101634.53
2023-03-28T17:23:38.487Z,101635.75
2023-03-28T17:26:08.932Z,101626.38
2023-03-28T17:28:39.742Z,101639.47
2023-03-28T17:31:13.282Z,101639.38
2023-03-28T17:33:41.225Z,101637.75
2023-03-28T17:36:22.950Z,101641.63
2023-03-28T17:38:56.694Z,101630.34
2023-03-28T17:41:25.664Z,101621.38
2023-03-28T17:43:54.578Z,101629.28
2023-03-28T17:46:22.625Z,101636.06
2023-03-28T17:48:50.235Z,101631.97
2023-03-28T17:51:17.537Z,101630.94
2023-03-28T17:53:47.031Z,101629.28
2023-03-28T17:56:14.548Z,101620.69
2023-03-28T17:58:42.075Z,101607.06
2023-03-28T18:01:18.609Z,101606.56
2023-03-28T18:03:47.631Z,101610.88
2023-03-28T18:06:41.050Z,101605.84
2023-03-28T18:09:08.222Z,101600.03
2023-03-28T18:11:36.369Z,101609.97
2023-03-28T18:14:03.334Z,101615.72
2023-03-28T18:16:30.283Z,101606.50
2023-03-28T18:18:57.545Z,101590.84
2023-03-28T18:21:24.698Z,101606.50
2023-03-28T18:23:51.710Z,101590.09
2023-03-28T18:26:18.685Z,101600.44
2023-03-28T18:28:45.715Z,101605.47
2023-03-28T18:31:19.557Z,101595.22
2023-03-28T18:33:46.611Z,101583.91
2023-03-28T18:36:14.173Z,101585.31
2023-03-28T18:38:43.651Z,101582.47
2023-03-28T18:41:12.737Z,101587.97
2023-03-28T18:43:42.441Z,101587.91
2023-03-28T18:48:41.800Z,101576.41
2023-03-28T18:51:08.934Z,101578.22
2023-03-28T18:53:37.916Z,101575.72
2023-03-28T18:56:10.322Z,101574.19
2023-03-28T18:58:37.408Z,101568.81
2023-03-28T19:01:05.655Z,101563.47
2023-03-28T19:03:40.177Z,101549.91
2023-03-28T19:06:09.569Z,101544.84
2023-03-28T19:08:36.809Z,101565.44
2023-03-28T19:11:11.710Z,101559.84
2023-03-28T19:13:39.033Z,101552.75
2023-03-28T19:16:18.401Z,101549.91
2023-03-28T19:18:46.825Z,101549.81
2023-03-28T19:21:14.215Z,101547.63
2023-03-28T19:23:41.824Z,101536.28
2023-03-28T19:26:12.378Z,101543.13
2023-03-28T19:28:40.728Z,101558.19
2023-03-28T19:31:10.982Z,101540.63
2023-03-28T19:33:40.734Z,101524.84
2023-03-28T19:36:09.553Z,101542.88
2023-03-28T19:38:37.906Z,101542.81
2023-03-28T19:41:20.813Z,101524.09
2023-03-28T19:43:48.815Z,101535.19
2023-03-28T19:46:23.953Z,101520.72
2023-03-28T19:48:55.059Z,101524.09
2023-03-28T19:51:23.082Z,101535.41
2023-03-28T19:53:50.010Z,101530.13
2023-03-28T19:56:18.856Z,101518.69
2023-03-28T19:58:46.696Z,101498.59
2023-03-28T20:01:14.495Z,101514.78
2023-03-28T20:03:42.087Z,101513.72
2023-03-28T20:06:12.268Z,101522.56
2023-03-28T20:08:40.013Z,101517.34
2023-03-28T20:11:12.229Z,101501.66
2023-03-28T20:13:39.862Z,101489.22
2023-03-28T20:16:09.774Z,101489.00
2023-03-28T20:18:37.453Z,101499.94
2023-03-28T20:21:08.940Z,101490.16
2023-03-28T20:23:36.753Z,101490.41
2023-03-28T20:26:24.604Z,101482.59
2023-03-28T20:28:56.790Z,101477.56
2023-03-28T20:31:23.870Z,101477.00
2023-03-28T20:33:53.274Z,101471.81
2023-03-28T20:36:20.510Z,101486.59
2023-03-28T20:38:48.661Z,101472.59
2023-03-28T20:41:18.288Z,101483.06
2023-03-28T20:43:47.990Z,101485.38
2023-03-28T20:46:20.412Z,101465.75
2023-03-28T20:48:52.101Z,101480.53
2023-03-28T20:51:22.886Z,101468.59
2023-03-28T20:53:56.929Z,101452.19
2023-03-28T20:56:25.632Z,101457.44
2023-03-28T20:58:53.715Z,101448.78
2023-03-28T21:01:25.186Z,101451.94
2023-03-28T21:03:54.630Z,101449.41
2023-03-28T21:06:30.528Z,101442.63
2023-03-28T21:09:00.501Z,101423.81
2023-03-28T21:11:33.830Z,101434.47
2023-03-28T21:14:02.026Z,101437.38
2023-03-28T21:16:31.359Z,101434.84
2023-03-28T21:19:00.143Z,101430.69
2023-03-28T21:21:29.805Z,101418.66
2023-03-28T21:24:01.208Z,101406.69
2023-03-28T21:26:29.090Z,101410.31
2023-03-28T21:28:56.233Z,101423.31
2023-03-28T21:31:27.253Z,101425.28
2023-03-28T21:33:59.554Z,101412.19
2023-03-28T21:36:27.678Z,101421.91
2023-03-28T21:38:56.052Z,101420.22
2023-03-28T21:41:23.496Z,101414.34
2023-03-28T21:43:51.763Z,101411.72
2023-03-28T21:46:19.126Z,101408.28
2023-03-28T21:48:47.850Z,101408.53
2023-03-28T21:51:17.036Z,101413.56
2023-03-28T21:53:44.162Z,101393.56
2023-03-28T21:56:12.734Z,101409.13
2023-03-28T21:58:40.320Z,101416.38
2023-03-28T22:01:07.662Z,101402.53
2023-03-28T22:03:38.268Z,101409.53
2023-03-28T22:06:06.532Z,101404.97
2023-03-28T22:08:33.425Z,101399.59
2023-03-28T22:11:02.625Z,101401.34
2023-03-28T22:13:30.253Z,101401.72
2023-03-28T22:16:00.784Z,101402.00
2023-03-28T22:18:28.295Z,101390.97
2023-03-28T22:20:55.534Z,101379.09
2023-03-28T22:23:23.879Z,101376.88
2023-03-28T22:25:52.878Z,101386.31
2023-03-28T22:28:24.198Z,101383.63
2023-03-28T22:30:55.005Z,101380.81
2023-03-28T22:33:23.460Z,101377.81
2023-03-28T22:35:51.131Z,101371.06
2023-03-28T22:38:19.380Z,101387.63
2023-03-28T22:40:47.279Z,101370.56
2023-03-28T22:43:14.379Z,101381.44
2023-03-28T22:45:41.500Z,101377.34
2023-03-28T22:48:14.725Z,101374.06
2023-03-28T22:50:47.099Z,101376.72
2023-03-28T22:53:15.126Z,101371.28
2023-03-28T22:55:43.847Z,101375.59
2023-03-28T22:58:11.690Z,101382.47
2023-03-28T23:00:38.820Z,101394.03
2023-03-28T23:03:05.827Z,101379.94
2023-03-28T23:05:32.862Z,101368.16
2023-03-28T23:08:00.140Z,101375.94
2023-03-28T23:10:27.404Z,101383.72
2023-03-28T23:12:54.466Z,101368.84
2023-03-28T23:15:21.398Z,101365.06
2023-03-28T23:17:48.829Z,101365.59
2023-03-28T23:20:15.890Z,101359.41
2023-03-28T23:22:45.687Z,101378.75
2023-03-28T23:25:15.504Z,101365.38
2023-03-28T23:27:43.251Z,101369.06
2023-03-28T23:30:13.126Z,101357.72
2023-03-28T23:32:40.366Z,101353.03
2023-03-28T23:35:09.819Z,101369.06
2023-03-28T23:37:38.109Z,101362.31
2023-03-28T23:40:06.606Z,101338.63
2023-03-28T23:42:33.503Z,101352.00
2023-03-28T23:45:00.510Z,101340.72
2023-03-28T23:47:27.617Z,101343.16
2023-03-28T23:49:54.590Z,101343.97
2023-03-28T23:52:21.901Z,101336.41
2023-03-28T23:54:48.870Z,101327.53
2023-03-28T23:57:15.797Z,101329.09
2023-03-28T23:59:42.733Z,101316.59
